McClellan, California
Current Conditions -  °F | °C
As of 6:45 AM on Monday 24 Nov 2014 (Local Time) from KMHR Reporting Station
Few Clouds Few Clouds  
Wind Chill: 34°   Ceiling: Unl
Heat Index: 37°   Visibility: 10mi
Dew Point: 37°   Wind: 5mph
Humidity: 100%   Direction: 360°N
Pressure: 30.38"   Gusts: NA
Location:  38.6632°N, 121.383°W
Report Text: KMHR 241445Z 36004KT 10SM FEW200 03/03 A3038
Loading
Personal Weather Stations






























Interactive Weather Map New forecast layout! Learn more

10-Day Weather Forecast

Advertisements
Track Severe Weather on mobile